Relevés horaires Laegern (Suisse)


Relevés horaires à Laegern - Mardi 24 Août 2021
Heure UTC1 Température [°C] Vent [km/h] Hum. [%] Pres.4 [hPa] Visi. [Km] Nébu. [octa] Préc.5 [mm] Cond.
2m. Res. Ros. Dir.2 Vit. Moy. Raf.3
23:00 11.0 11.0 10.3 NNE 0.0 -- 46.3 95 850(-0.5/3h) -- -- -- --
22:00 11.4 11.4 10.5 NNE 0.0 -- 48.2 94 850(-0.5/3h) -- -- -- --
21:00 11.9 11.9 10.5 NNE 0.0 -- 53.7 91 850(-0.5/3h) -- -- -- --
20:00 12.7 12.7 10.5 N 0.0 -- 51.9 86 850(0.0/3h) -- -- -- --
19:00 12.9 12.9 10.1 NNE 0.0 -- 46.3 83 850(-0.1/3h) -- -- -- --
18:00 13.6 13.6 10.0 NNE 0.0 -- 51.9 79 850(-0.3/3h) -- -- -- --
17:00 13.4 13.4 9.9 NNE 0.0 -- 46.3 79 850(-0.4/3h) -- -- -- --
16:00 13.1 13.1 9.6 NNE 0.0 -- 44.4 79 850(-0.4/3h) -- -- -- --
15:00 12.9 12.9 9.8 NE 0.0 -- 51.9 81 850(-0.2/3h) -- -- -- --
14:00 13.0 13.0 10.1 NNE 0.0 -- 51.9 83 850(-0.4/3h) -- -- -- --
13:00 12.4 12.4 9.7 N 0.0 -- 48.2 84 850(-0.4/3h) -- -- -- --
12:00 11.5 11.5 9.5 N 0.0 -- 51.9 88 850(-0.3/3h) -- -- -- --
11:00 11.1 11.1 9.4 NNE 0.0 -- 42.6 89 850(0.6/3h) -- -- -- --
10:00 10.6 10.6 9.1 NNE 0.0 -- 37.0 90 850(0.6/3h) -- -- -- --
09:00 9.9 9.9 8.9 NNE 0.0 -- 46.3 93 850(0.5/3h) -- -- -- --
08:00 9.3 9.3 8.8 NNE 0.0 -- 46.3 97 850(0.0/3h) -- -- -- --
07:00 8.9 8.9 8.8 N 0.0 -- 46.3 99 850(0.1/3h) -- -- -- --
06:00 8.9 8.9 8.7 NNE 0.0 -- 50.0 99 850(0.1/3h) -- -- -- --
05:00 9.2 9.2 8.7 NNE 0.0 -- 50.0 97 850(0.0/3h) -- -- -- --
04:00 9.8 9.8 9.0 NNE 0.0 -- 42.6 95 850(-0.3/3h) -- -- -- --
03:00 10.9 10.9 9.8 NNE 0.0 -- 48.2 93 850(-0.5/3h) -- -- -- --
02:00 11.9 11.9 11.3 NNE 0.0 -- 48.2 96 850(-0.8/3h) -- -- -- --
01:00 12.2 12.2 12.0 NNE 0.0 -- 33.3 99 850(-0.6/3h) -- -- -- --
00:00 12.3 12.3 11.8 NE 0.0 -- 40.7 97 850(-0.4/3h) -- -- -- --

1 Coordinated Universal Time. Actuellement il est 01:00 locale et 23:00 UTC.

2 Le vent souffle depuis la direction indiquée vers la direction oposée.

3 Les rafales max. sont disponible 40 min après l'heure du relevé.

4 Pour les stations d'altitude (plus de 600m) le géopotentiel du niveau le plus proche de la pression obligatoire est indiqué.

5 Les stations disposant d'un diffuseur peuvent indiquer "trace". Cela signifie que des précipitations ont touchés le sol mais que la quantité est inférieure à 0.1 mm.

Copyright

Les données affichées sur cette page sont la propriété exclusive de Météo Suisse.

Récapitulatif de la journée
Température [°C] Vent [km/h] Ensoleillement4 [h] Precipitations totale5 [mm] Pression [Hpa]
Min1 Max.2 Moy.3 Max. Min Max.
9.0 13.7 0 53.7 1 h 6 min 0 850.0 850.0

1 Température minimale relevée entre 18:00 UTC la veille et 18:00 UTC le jour donné.

2 Température maximale relevée entre 06:00 UTC le jour donné et 06:00 UTC le lendemain.

3 Vent moyen de la journée basé sur les relevés horaires.

4 Ensoleillement en heures relevé entre 06:00 UTC la veille et 06:00 UTC le jour donné.

5 Précipitations totales tombées entre 06:00 UTC la jour donné et 06:00 UTC le lendemain.

Graphiques horaires